createdAt,value
2019-02-14T00:00:08.810Z,46.40
2019-02-14T00:02:37.702Z,45.83
2019-02-14T00:05:07.029Z,47.90
2019-02-14T00:07:36.033Z,51.50
2019-02-14T00:10:05.285Z,41.50
2019-02-14T00:12:34.181Z,44.70
2019-02-14T00:15:03.147Z,41.47
2019-02-14T00:17:32.286Z,39.77
2019-02-14T00:20:01.246Z,45.50
2019-02-14T00:22:30.069Z,52.07
2019-02-14T00:24:58.984Z,42.23
2019-02-14T00:27:27.857Z,42.10
2019-02-14T00:29:56.678Z,42.73
2019-02-14T00:32:25.657Z,40.80
2019-02-14T00:34:54.486Z,46.60
2019-02-14T00:37:23.435Z,46.63
2019-02-14T00:39:52.286Z,39.57
2019-02-14T00:42:21.918Z,42.03
2019-02-14T00:44:50.984Z,43.70
2019-02-14T00:47:19.965Z,35.97
2019-02-14T00:49:49.009Z,39.10
2019-02-14T00:52:20.255Z,40.53
2019-02-14T00:54:49.309Z,50.47
2019-02-14T00:57:18.370Z,36.43
2019-02-14T00:59:47.234Z,38.77
2019-02-14T01:02:16.313Z,39.27
2019-02-14T01:04:48.089Z,44.77
2019-02-14T01:07:17.124Z,53.37
2019-02-14T01:09:46.215Z,44.57
2019-02-14T01:12:15.212Z,41.20
2019-02-14T01:14:44.214Z,41.63
2019-02-14T01:17:14.781Z,31.47
2019-02-14T01:19:43.755Z,42.70
2019-02-14T01:22:12.612Z,54.17
2019-02-14T01:24:41.523Z,44.20
2019-02-14T01:27:10.436Z,37.83
2019-02-14T01:29:39.299Z,41.47
2019-02-14T01:32:08.179Z,40.30
2019-02-14T01:34:37.054Z,39.90
2019-02-14T01:37:05.941Z,43.30
2019-02-14T01:39:34.746Z,35.33
2019-02-14T01:42:03.704Z,37.70
2019-02-14T01:44:32.912Z,39.90
2019-02-14T01:47:01.759Z,33.40
2019-02-14T01:49:30.608Z,38.20
2019-02-14T01:51:59.403Z,30.57
2019-02-14T01:54:28.248Z,33.87
2019-02-14T01:56:57.207Z,39.27
2019-02-14T01:59:26.031Z,36.03
2019-02-14T02:01:55.030Z,37.33
2019-02-14T02:04:23.960Z,33.20
2019-02-14T02:06:52.847Z,51.10
2019-02-14T02:09:21.920Z,36.07
2019-02-14T02:11:50.854Z,39.63
2019-02-14T02:14:19.745Z,32.67
2019-02-14T02:16:48.523Z,28.70
2019-02-14T02:19:17.437Z,38.57
2019-02-14T02:21:46.484Z,33.87
2019-02-14T02:24:15.301Z,33.17
2019-02-14T02:26:44.254Z,37.83
2019-02-14T02:29:13.134Z,45.90
2019-02-14T02:31:42.085Z,31.30
2019-02-14T02:34:11.236Z,31.03
2019-02-14T02:36:40.044Z,33.33
2019-02-14T02:39:09.089Z,28.87
2019-02-14T02:41:37.959Z,23.73
2019-02-14T02:44:06.865Z,43.77
2019-02-14T02:46:37.957Z,41.77
2019-02-14T02:49:06.879Z,29.30
2019-02-14T02:51:35.765Z,37.60
2019-02-14T02:54:04.673Z,28.87
2019-02-14T02:56:33.524Z,30.83
2019-02-14T02:59:02.398Z,39.67
2019-02-14T03:01:31.218Z,32.80
2019-02-14T03:04:00.059Z,29.30
2019-02-14T03:06:29.166Z,36.57
2019-02-14T03:08:58.211Z,32.63
2019-02-14T03:11:27.151Z,23.73
2019-02-14T03:13:55.957Z,27.70
2019-02-14T03:16:24.765Z,33.63
2019-02-14T03:18:53.584Z,29.13
2019-02-14T03:21:22.445Z,28.63
2019-02-14T03:23:51.387Z,31.67
2019-02-14T03:26:20.298Z,23.10
2019-02-14T03:28:49.095Z,23.93
2019-02-14T03:31:18.007Z,27.50
2019-02-14T03:33:46.910Z,27.23
2019-02-14T03:36:19.180Z,42.93
2019-02-14T03:38:46.449Z,28.40
2019-02-14T03:41:15.325Z,27.90
2019-02-14T03:43:44.202Z,29.73
2019-02-14T03:46:13.103Z,25.93
2019-02-14T03:48:41.985Z,23.30
2019-02-14T03:51:10.852Z,28.63
2019-02-14T03:53:39.925Z,26.30
2019-02-14T03:56:09.002Z,28.00
2019-02-14T03:58:37.976Z,22.33
2019-02-14T04:01:06.869Z,25.30
2019-02-14T04:03:35.919Z,35.33
2019-02-14T04:06:04.830Z,34.83
2019-02-14T04:08:33.676Z,27.40
2019-02-14T04:11:02.703Z,24.47
2019-02-14T04:13:31.903Z,29.53
2019-02-14T04:16:00.786Z,35.20
2019-02-14T04:18:29.786Z,25.20
2019-02-14T04:20:58.661Z,31.53
2019-02-14T04:23:27.645Z,26.80
2019-02-14T04:25:56.593Z,25.20
2019-02-14T04:28:25.443Z,25.27
2019-02-14T04:30:54.326Z,24.07
2019-02-14T04:33:23.231Z,33.63
2019-02-14T04:35:52.010Z,26.80
2019-02-14T04:38:20.918Z,27.60
2019-02-14T04:40:49.748Z,24.37
2019-02-14T04:43:18.643Z,26.53
2019-02-14T04:45:47.565Z,21.10
2019-02-14T04:48:16.482Z,30.13
2019-02-14T04:50:45.317Z,20.53
2019-02-14T04:53:14.190Z,21.67
2019-02-14T04:55:42.998Z,20.27
2019-02-14T04:58:11.843Z,24.50
2019-02-14T05:00:40.663Z,22.97
2019-02-14T05:03:09.638Z,25.43
2019-02-14T05:05:38.417Z,23.03
2019-02-14T05:08:07.373Z,28.07
2019-02-14T05:10:36.293Z,23.80
2019-02-14T05:13:05.112Z,24.40
2019-02-14T05:15:34.061Z,19.40
2019-02-14T05:18:06.378Z,22.77
2019-02-14T05:20:35.228Z,23.93
2019-02-14T05:23:04.246Z,22.80
2019-02-14T05:25:33.526Z,20.63
2019-02-14T05:28:02.316Z,28.20
2019-02-14T05:30:31.385Z,21.03
2019-02-14T05:33:00.342Z,26.23
2019-02-14T05:35:29.214Z,20.97
2019-02-14T05:37:58.104Z,26.67
2019-02-14T05:40:27.088Z,21.97
2019-02-14T05:42:55.901Z,18.30
2019-02-14T05:45:24.804Z,24.93
2019-02-14T05:47:53.730Z,30.73
2019-02-14T05:50:22.820Z,22.03
2019-02-14T05:52:51.640Z,30.83
2019-02-14T05:55:20.831Z,29.80
2019-02-14T05:57:49.687Z,22.83
2019-02-14T06:00:19.193Z,26.33
2019-02-14T06:02:48.215Z,24.23
2019-02-14T06:05:17.091Z,20.17
2019-02-14T06:07:45.991Z,22.30
2019-02-14T06:10:14.871Z,22.13
2019-02-14T06:12:43.828Z,24.80
2019-02-14T06:15:12.871Z,22.77
2019-02-14T06:17:41.926Z,28.50
2019-02-14T06:20:10.967Z,29.07
2019-02-14T06:22:39.914Z,23.93
2019-02-14T06:25:08.987Z,18.57
2019-02-14T06:27:37.898Z,21.50
2019-02-14T06:30:08.372Z,25.40
2019-02-14T06:32:37.178Z,30.23
2019-02-14T06:35:06.330Z,26.70
2019-02-14T06:37:35.180Z,29.30
2019-02-14T06:40:07.495Z,30.30
2019-02-14T06:42:36.325Z,24.43
2019-02-14T06:45:05.698Z,21.23
2019-02-14T06:47:34.579Z,32.67
2019-02-14T06:50:03.465Z,28.23
2019-02-14T06:52:40.658Z,35.53
2019-02-14T06:55:09.919Z,25.83
2019-02-14T06:57:38.807Z,25.60
2019-02-14T07:00:09.136Z,32.07
2019-02-14T07:02:37.958Z,24.37
2019-02-14T07:05:07.409Z,30.37
2019-02-14T07:07:36.309Z,24.03
2019-02-14T07:10:05.478Z,33.13
2019-02-14T07:12:34.471Z,30.57
2019-02-14T07:15:04.134Z,33.20
2019-02-14T07:17:37.204Z,28.63
2019-02-14T07:20:08.207Z,25.83
2019-02-14T07:22:37.094Z,28.03
2019-02-14T07:25:06.385Z,22.57
2019-02-14T07:27:35.292Z,26.13
2019-02-14T07:30:05.528Z,38.17
2019-02-14T07:32:34.502Z,29.07
2019-02-14T07:35:03.596Z,24.73
2019-02-14T07:37:32.455Z,33.50
2019-02-14T07:40:01.373Z,23.53
2019-02-14T07:42:30.241Z,28.30
2019-02-14T07:44:59.043Z,23.37
2019-02-14T07:47:27.941Z,20.63
2019-02-14T07:49:56.757Z,24.67
2019-02-14T07:52:25.624Z,28.17
2019-02-14T07:54:54.437Z,29.17
2019-02-14T07:57:23.264Z,24.40
2019-02-14T07:59:52.110Z,27.20
2019-02-14T08:02:20.920Z,33.77
2019-02-14T08:04:49.745Z,30.33
2019-02-14T08:07:18.534Z,22.30
2019-02-14T08:09:47.658Z,28.50
2019-02-14T08:12:16.512Z,25.63
2019-02-14T08:14:45.436Z,24.90
2019-02-14T08:17:14.548Z,23.10
2019-02-14T08:19:43.436Z,26.63
2019-02-14T08:22:12.248Z,26.80
2019-02-14T08:24:41.098Z,24.53
2019-02-14T08:27:09.926Z,34.93
2019-02-14T08:29:38.766Z,25.83
2019-02-14T08:32:07.627Z,28.40
2019-02-14T08:34:36.477Z,26.23
2019-02-14T08:37:05.385Z,20.40
2019-02-14T08:39:34.181Z,28.03
2019-02-14T08:42:02.997Z,26.83
2019-02-14T08:44:31.780Z,24.67
2019-02-14T08:47:00.570Z,28.50
2019-02-14T08:49:29.433Z,26.23
2019-02-14T08:51:58.306Z,31.57
2019-02-14T08:54:27.129Z,21.77
2019-02-14T08:56:55.911Z,33.40
2019-02-14T08:59:24.740Z,30.70
2019-02-14T09:01:53.581Z,26.20
2019-02-14T09:04:22.543Z,39.40
2019-02-14T09:06:51.616Z,22.37
2019-02-14T09:09:20.400Z,30.53
2019-02-14T09:11:49.194Z,22.80
2019-02-14T09:14:17.976Z,31.70
2019-02-14T09:16:46.776Z,27.33
2019-02-14T09:19:15.554Z,21.70
2019-02-14T09:21:44.359Z,23.23
2019-02-14T09:24:13.167Z,21.90
2019-02-14T09:26:42.240Z,25.07
2019-02-14T09:29:13.678Z,24.93
2019-02-14T09:31:41.669Z,25.73
2019-02-14T09:34:10.951Z,22.17
2019-02-14T09:36:41.424Z,29.07
2019-02-14T09:39:10.237Z,22.77
2019-02-14T09:41:39.153Z,29.80
2019-02-14T09:44:08.123Z,33.40
2019-02-14T09:46:37.066Z,25.60
2019-02-14T09:49:05.971Z,34.07
2019-02-14T09:51:34.883Z,30.00
2019-02-14T09:54:03.855Z,29.30
2019-02-14T09:56:32.751Z,24.87
2019-02-14T09:59:01.513Z,27.53
2019-02-14T10:01:30.405Z,24.40
2019-02-14T10:03:59.250Z,34.63
2019-02-14T10:06:36.329Z,21.57
2019-02-14T10:09:00.544Z,20.80
2019-02-14T10:11:29.211Z,23.33
2019-02-14T10:13:58.005Z,23.33
2019-02-14T10:16:26.877Z,25.20
2019-02-14T10:18:55.727Z,25.50
2019-02-14T10:21:24.609Z,26.33
2019-02-14T10:23:53.372Z,30.43
2019-02-14T10:26:22.161Z,24.60
2019-02-14T10:28:50.939Z,23.90
2019-02-14T10:31:19.705Z,20.73
2019-02-14T10:33:48.473Z,27.43
2019-02-14T10:36:17.568Z,18.07
2019-02-14T10:38:46.423Z,21.57
2019-02-14T10:41:15.331Z,22.73
2019-02-14T10:43:48.876Z,23.80
2019-02-14T10:46:14.630Z,20.47
2019-02-14T10:48:43.475Z,21.33
2019-02-14T10:51:12.391Z,32.83
2019-02-14T10:53:41.267Z,19.20
2019-02-14T10:56:10.048Z,17.80
2019-02-14T10:58:38.869Z,16.97
2019-02-14T11:01:07.744Z,16.63
2019-02-14T11:03:36.599Z,14.60
2019-02-14T11:06:05.569Z,19.50
2019-02-14T11:08:34.331Z,18.70
2019-02-14T11:11:03.192Z,16.60
2019-02-14T11:13:32.134Z,12.70
2019-02-14T11:16:02.609Z,22.33
2019-02-14T11:18:31.405Z,12.33
2019-02-14T11:21:00.161Z,18.13
2019-02-14T11:23:29.065Z,12.93
2019-02-14T11:25:59.715Z,18.43
2019-02-14T11:28:28.472Z,24.70
2019-02-14T11:30:57.252Z,20.83
2019-02-14T11:33:26.103Z,14.87
2019-02-14T11:35:54.906Z,20.60
2019-02-14T11:38:23.878Z,17.90
2019-02-14T11:40:52.718Z,21.67
2019-02-14T11:43:23.988Z,15.20
2019-02-14T11:45:52.782Z,20.50
2019-02-14T11:48:21.666Z,22.63
2019-02-14T11:50:51.173Z,18.00
2019-02-14T11:53:40.152Z,18.43
2019-02-14T11:56:11.267Z,24.97
2019-02-14T11:58:43.193Z,24.10
2019-02-14T12:01:12.307Z,22.83
2019-02-14T12:03:41.127Z,25.87
2019-02-14T12:06:10.082Z,29.53
2019-02-14T12:08:38.839Z,16.30
2019-02-14T12:11:07.754Z,22.77
2019-02-14T12:13:36.821Z,19.57
2019-02-14T12:16:05.661Z,28.07
2019-02-14T12:18:36.077Z,20.80
2019-02-14T12:21:07.915Z,23.73
2019-02-14T12:23:39.763Z,25.03
2019-02-14T12:26:08.655Z,23.63
2019-02-14T12:28:37.547Z,25.63
2019-02-14T12:31:06.703Z,27.47
2019-02-14T12:33:38.337Z,24.63
2019-02-14T12:36:07.139Z,18.20
2019-02-14T12:38:35.907Z,19.70
2019-02-14T12:41:08.751Z,20.80
2019-02-14T12:43:52.157Z,16.63
2019-02-14T12:46:23.327Z,23.20
2019-02-14T12:48:53.623Z,19.10
2019-02-14T12:51:25.869Z,21.43
2019-02-14T12:54:02.225Z,24.23
2019-02-14T12:56:31.010Z,25.43
2019-02-14T12:58:59.863Z,27.47
2019-02-14T13:01:29.791Z,22.10
2019-02-14T13:03:58.717Z,15.87
2019-02-14T13:06:28.332Z,18.27
2019-02-14T13:08:57.095Z,19.87
2019-02-14T13:11:25.880Z,18.67
2019-02-14T13:13:54.758Z,21.73
2019-02-14T13:16:23.584Z,22.07
2019-02-14T13:18:52.371Z,23.93
2019-02-14T13:21:21.187Z,19.87
2019-02-14T13:23:50.111Z,26.67
2019-02-14T13:26:19.479Z,14.83
2019-02-14T13:28:48.364Z,17.93
2019-02-14T13:31:17.245Z,20.13
2019-02-14T13:33:46.052Z,22.60
2019-02-14T13:36:17.742Z,20.70
2019-02-14T13:38:46.593Z,22.90
2019-02-14T13:41:15.501Z,19.07
2019-02-14T13:43:44.319Z,17.57
2019-02-14T13:46:13.251Z,19.47
2019-02-14T13:48:42.025Z,20.10
2019-02-14T13:51:10.828Z,23.63
2019-02-14T13:53:39.615Z,21.07
2019-02-14T13:56:08.406Z,17.87
2019-02-14T13:58:37.303Z,26.70
2019-02-14T14:01:06.439Z,19.10
2019-02-14T14:03:35.659Z,22.20
2019-02-14T14:06:04.831Z,29.13
2019-02-14T14:08:33.713Z,19.40
2019-02-14T14:11:02.604Z,21.60
2019-02-14T14:13:31.721Z,19.60
2019-02-14T14:16:00.691Z,20.73
2019-02-14T14:18:29.880Z,21.20
2019-02-14T14:20:58.744Z,21.27
2019-02-14T14:23:27.618Z,25.20
2019-02-14T14:25:56.400Z,20.77
2019-02-14T14:28:25.207Z,24.53
2019-02-14T14:30:54.187Z,17.80
2019-02-14T14:33:23.067Z,22.00
2019-02-14T14:35:51.853Z,25.10
2019-02-14T14:38:20.746Z,26.20
2019-02-14T14:40:49.599Z,21.23
2019-02-14T14:43:36.061Z,17.97
2019-02-14T14:46:22.695Z,26.17
2019-02-14T14:48:51.556Z,23.47
2019-02-14T14:51:21.289Z,24.70
2019-02-14T14:53:50.282Z,19.43
2019-02-14T14:56:19.085Z,28.10
2019-02-14T14:58:47.910Z,24.40
2019-02-14T15:01:16.678Z,20.63
2019-02-14T15:03:45.501Z,20.70
2019-02-14T15:06:14.358Z,22.73
2019-02-14T15:08:43.239Z,28.30
2019-02-14T15:11:11.985Z,20.67
2019-02-14T15:13:40.796Z,31.47
2019-02-14T15:16:09.680Z,38.03
2019-02-14T15:18:38.550Z,24.03
2019-02-14T15:21:07.945Z,21.33
2019-02-14T15:23:36.878Z,21.93
2019-02-14T15:26:05.676Z,19.30
2019-02-14T15:28:34.692Z,23.83
2019-02-14T15:31:03.550Z,23.70
2019-02-14T15:33:32.380Z,26.37
2019-02-14T15:36:01.220Z,18.00
2019-02-14T15:38:32.056Z,15.97
2019-02-14T15:41:00.592Z,26.77
2019-02-14T15:43:29.417Z,23.83
2019-02-14T15:45:58.362Z,23.83
2019-02-14T15:48:29.445Z,21.40
2019-02-14T15:50:58.330Z,21.00
2019-02-14T15:53:27.391Z,15.97
2019-02-14T15:55:56.250Z,22.60
2019-02-14T15:58:25.066Z,17.57
2019-02-14T16:00:54.155Z,20.27
2019-02-14T16:03:23.124Z,18.83
2019-02-14T16:05:51.912Z,27.87
2019-02-14T16:08:22.253Z,26.97
2019-02-14T16:10:54.099Z,17.50
2019-02-14T16:13:23.449Z,30.40
2019-02-14T16:15:53.800Z,28.07
2019-02-14T16:18:23.214Z,39.13
2019-02-14T16:20:53.269Z,25.27
2019-02-14T16:23:22.324Z,22.37
2019-02-14T16:25:52.000Z,30.83
2019-02-14T16:28:21.294Z,28.70
2019-02-14T16:30:50.198Z,37.57
2019-02-14T16:33:19.347Z,28.83
2019-02-14T16:35:48.174Z,37.17
2019-02-14T16:38:17.210Z,31.10
2019-02-14T16:40:46.441Z,40.57
2019-02-14T16:43:15.377Z,27.20
2019-02-14T16:45:44.267Z,33.20
2019-02-14T16:48:13.174Z,23.87
2019-02-14T16:50:42.010Z,28.17
2019-02-14T16:53:10.897Z,28.57
2019-02-14T16:55:39.745Z,35.43
2019-02-14T16:58:08.847Z,29.50
2019-02-14T17:00:37.757Z,33.90
2019-02-14T17:03:06.558Z,35.80
2019-02-14T17:05:35.553Z,34.93
2019-02-14T17:08:04.709Z,31.70
2019-02-14T17:10:36.956Z,32.80
2019-02-14T17:13:04.360Z,44.53
2019-02-14T17:15:33.150Z,32.07
2019-02-14T17:18:02.108Z,39.33
2019-02-14T17:20:30.971Z,32.70
2019-02-14T17:22:59.846Z,30.23
2019-02-14T17:25:28.691Z,32.13
2019-02-14T17:27:57.591Z,29.27
2019-02-14T17:30:26.445Z,28.83
2019-02-14T17:32:55.267Z,38.83
2019-02-14T17:35:24.153Z,42.70
2019-02-14T17:37:53.340Z,44.63
2019-02-14T17:40:22.171Z,41.13
2019-02-14T17:42:52.574Z,36.53
2019-02-14T17:45:21.490Z,33.03
2019-02-14T17:47:50.376Z,41.30
2019-02-14T17:50:19.179Z,50.43
2019-02-14T17:52:48.006Z,45.40
2019-02-14T17:55:16.920Z,39.30
2019-02-14T17:57:45.760Z,33.37
2019-02-14T18:00:15.023Z,44.43
2019-02-14T18:02:43.874Z,35.37
2019-02-14T18:05:12.728Z,36.17
2019-02-14T18:07:41.522Z,56.80
2019-02-14T18:10:11.034Z,57.43
2019-02-14T18:12:39.969Z,44.27
2019-02-14T18:15:10.628Z,47.83
2019-02-14T18:17:39.497Z,51.53
2019-02-14T18:20:09.483Z,45.73
2019-02-14T18:22:38.310Z,40.73
2019-02-14T18:25:08.579Z,37.00
2019-02-14T18:27:37.474Z,46.37
2019-02-14T18:30:07.277Z,35.47
2019-02-14T18:32:36.170Z,42.70
2019-02-14T18:35:06.066Z,39.97
2019-02-14T18:37:35.003Z,57.13
2019-02-14T18:40:04.067Z,64.70
2019-02-14T18:42:33.063Z,49.27
2019-02-14T18:45:01.952Z,45.17
2019-02-14T18:47:39.349Z,43.87
2019-02-14T18:50:04.737Z,41.20
2019-02-14T18:52:33.632Z,44.60
2019-02-14T18:55:11.646Z,54.93
2019-02-14T18:57:48.656Z,53.13
2019-02-14T19:00:17.670Z,62.50
2019-02-14T19:02:46.521Z,62.47
2019-02-14T19:05:17.048Z,43.07
2019-02-14T19:07:46.091Z,58.00
2019-02-14T19:10:15.327Z,56.27
2019-02-14T19:12:44.440Z,50.73
2019-02-14T19:15:13.406Z,59.20
2019-02-14T19:17:43.545Z,49.03
2019-02-14T19:20:12.383Z,67.17
2019-02-14T19:22:41.351Z,41.17
2019-02-14T19:25:10.641Z,41.93
2019-02-14T19:27:40.878Z,49.03
2019-02-14T19:30:10.291Z,66.70
2019-02-14T19:32:42.083Z,60.73
2019-02-14T19:35:11.142Z,57.07
2019-02-14T19:37:40.163Z,52.40
2019-02-14T19:40:09.304Z,65.53
2019-02-14T19:42:38.329Z,58.07
2019-02-14T19:45:10.911Z,45.83
2019-02-14T19:47:41.337Z,88.20
2019-02-14T19:50:19.638Z,47.67
2019-02-14T19:52:48.665Z,56.63
2019-02-14T19:55:17.617Z,45.87
2019-02-14T19:57:46.832Z,53.00
2019-02-14T20:00:24.787Z,54.73
2019-02-14T20:03:00.722Z,49.83
2019-02-14T20:05:57.817Z,51.13
2019-02-14T20:08:37.955Z,63.27
2019-02-14T20:11:10.254Z,53.33
2019-02-14T20:13:39.298Z,61.90
2019-02-14T20:16:14.376Z,40.60
2019-02-14T20:18:43.301Z,36.90
2019-02-14T20:21:12.331Z,42.73
2019-02-14T20:23:41.324Z,29.37
2019-02-14T20:26:10.400Z,22.67
2019-02-14T20:28:39.760Z,25.47
2019-02-14T20:31:10.219Z,20.23
2019-02-14T20:33:39.238Z,22.00
2019-02-14T20:36:10.594Z,18.57
2019-02-14T20:38:39.451Z,20.13
2019-02-14T20:41:08.391Z,12.97
2019-02-14T20:43:38.388Z,15.90
2019-02-14T20:46:08.351Z,16.43
2019-02-14T20:48:38.499Z,16.50
2019-02-14T20:51:07.400Z,14.93
2019-02-14T20:53:36.586Z,21.33
2019-02-14T20:56:05.533Z,21.90
2019-02-14T20:58:36.883Z,20.03
2019-02-14T21:01:08.414Z,15.90
2019-02-14T21:03:37.409Z,19.60
2019-02-14T21:06:06.577Z,22.20
2019-02-14T21:08:35.566Z,34.07
2019-02-14T21:11:04.881Z,19.17
2019-02-14T21:13:33.925Z,19.57
2019-02-14T21:16:03.151Z,22.80
2019-02-14T21:18:32.191Z,26.83
2019-02-14T21:21:01.507Z,17.57
2019-02-14T21:23:33.073Z,31.50
2019-02-14T21:26:02.084Z,18.47
2019-02-14T21:28:31.098Z,18.20
2019-02-14T21:31:00.147Z,19.17
2019-02-14T21:33:29.082Z,23.50
2019-02-14T21:35:58.230Z,27.40
2019-02-14T21:38:27.331Z,30.10
2019-02-14T21:40:56.319Z,33.73
2019-02-14T21:43:25.228Z,26.90
2019-02-14T21:45:54.181Z,32.23
2019-02-14T21:48:23.081Z,24.00
2019-02-14T21:50:52.019Z,24.90
2019-02-14T21:53:20.969Z,22.40
2019-02-14T21:55:50.009Z,34.37
2019-02-14T21:58:19.025Z,16.40
2019-02-14T22:00:48.172Z,34.07
2019-02-14T22:03:17.106Z,23.53
2019-02-14T22:05:45.973Z,20.07
2019-02-14T22:08:14.866Z,21.53
2019-02-14T22:10:43.834Z,27.33
2019-02-14T22:13:12.851Z,22.93
2019-02-14T22:15:41.839Z,31.60
2019-02-14T22:18:11.041Z,28.23
2019-02-14T22:20:39.973Z,21.60
2019-02-14T22:23:09.201Z,22.10
2019-02-14T22:25:38.099Z,23.23
2019-02-14T22:28:07.018Z,25.40
2019-02-14T22:30:35.981Z,25.17
2019-02-14T22:33:05.611Z,20.77
2019-02-14T22:35:34.579Z,22.13
2019-02-14T22:38:03.419Z,17.70
2019-02-14T22:40:32.388Z,19.80
2019-02-14T22:43:01.346Z,16.53
2019-02-14T22:45:30.138Z,20.67
2019-02-14T22:47:59.174Z,21.13
2019-02-14T22:50:28.083Z,20.17
2019-02-14T22:52:56.980Z,29.70
2019-02-14T22:55:26.053Z,25.83
2019-02-14T22:57:54.978Z,28.03
2019-02-14T23:00:32.224Z,21.30
2019-02-14T23:03:01.251Z,21.17
2019-02-14T23:05:30.247Z,23.07
2019-02-14T23:07:59.222Z,19.70
2019-02-14T23:10:28.185Z,21.80
2019-02-14T23:12:57.119Z,22.60
2019-02-14T23:15:26.378Z,26.50
2019-02-14T23:17:55.772Z,21.20
2019-02-14T23:20:24.795Z,20.67
2019-02-14T23:22:53.899Z,23.20
2019-02-14T23:25:26.037Z,31.33
2019-02-14T23:27:55.068Z,34.63
2019-02-14T23:30:24.331Z,30.93
2019-02-14T23:32:53.492Z,24.10
2019-02-14T23:35:22.521Z,59.75
2019-02-14T23:37:53.878Z,87.43
2019-02-14T23:40:22.801Z,169.83
2019-02-14T23:42:51.892Z,29.67
2019-02-14T23:45:21.018Z,38.77
2019-02-14T23:47:50.119Z,27.40
2019-02-14T23:50:19.275Z,35.50
2019-02-14T23:52:48.228Z,33.75
2019-02-14T23:55:17.091Z,42.98
2019-02-14T23:57:46.074Z,36.75
